createdAt,value
2022-08-12T00:00:40.576Z,43.83
2022-08-12T00:02:03.917Z,42.06
2022-08-12T00:02:41.811Z,44.79
2022-08-12T00:03:40.625Z,43.51
2022-08-12T00:04:40.556Z,42.38
2022-08-12T00:05:57.182Z,44.79
2022-08-12T00:06:41.570Z,44.96
2022-08-12T00:07:40.568Z,45.28
2022-08-12T00:08:40.649Z,42.06
2022-08-12T00:09:40.482Z,44.96
2022-08-12T00:10:40.477Z,44.96
2022-08-12T00:11:40.465Z,45.28
2022-08-12T00:12:40.770Z,42.38
2022-08-12T00:13:40.446Z,41.09
2022-08-12T00:14:40.432Z,41.25
2022-08-12T00:15:40.426Z,47.86
2022-08-12T00:16:40.431Z,47.53
2022-08-12T00:17:40.406Z,41.57
2022-08-12T00:18:40.401Z,41.57
2022-08-12T00:19:40.384Z,45.12
2022-08-12T00:20:40.377Z,53.66
2022-08-12T00:21:40.445Z,41.57
2022-08-12T00:22:40.537Z,41.73
2022-08-12T00:23:40.346Z,41.89
2022-08-12T00:24:40.396Z,41.89
2022-08-12T00:26:18.991Z,42.22
2022-08-12T00:26:41.358Z,42.06
2022-08-12T00:27:43.920Z,42.22
2022-08-12T00:28:40.298Z,42.54
2022-08-12T00:29:41.788Z,42.54
2022-08-12T00:30:40.281Z,42.38
2022-08-12T00:31:40.289Z,42.22
2022-08-12T00:32:40.275Z,42.70
2022-08-12T00:33:52.639Z,42.86
2022-08-12T00:34:41.264Z,53.01
2022-08-12T00:35:40.435Z,43.51
2022-08-12T00:36:40.223Z,43.34
2022-08-12T00:37:40.233Z,43.34
2022-08-12T00:38:40.199Z,43.51
2022-08-12T00:39:40.240Z,43.18
2022-08-12T00:40:40.182Z,43.83
2022-08-12T00:41:40.169Z,43.99
2022-08-12T00:42:40.492Z,43.51
2022-08-12T00:43:40.150Z,43.67
2022-08-12T00:44:40.150Z,44.31
2022-08-12T00:45:40.133Z,43.99
2022-08-12T00:46:40.136Z,43.83
2022-08-12T00:47:40.126Z,43.67
2022-08-12T00:48:40.107Z,43.51
2022-08-12T00:49:40.092Z,43.67
2022-08-12T00:50:40.092Z,43.34
2022-08-12T00:51:40.073Z,55.91
2022-08-12T00:52:40.241Z,43.02
2022-08-12T00:53:40.053Z,43.67
2022-08-12T00:54:40.047Z,51.88
2022-08-12T00:55:40.035Z,42.54
2022-08-12T00:56:40.031Z,44.15
2022-08-12T00:57:40.030Z,44.15
2022-08-12T00:58:40.013Z,43.18
2022-08-12T00:59:39.997Z,43.18
2022-08-12T01:00:39.994Z,50.60
2022-08-12T01:02:10.418Z,42.54
2022-08-12T01:02:41.226Z,42.54
2022-08-12T01:03:39.954Z,48.82
2022-08-12T01:04:39.948Z,51.72
2022-08-12T01:05:39.930Z,43.18
2022-08-12T01:06:39.925Z,43.51
2022-08-12T01:07:39.930Z,43.51
2022-08-12T01:08:39.911Z,44.15
2022-08-12T01:09:39.924Z,44.15
2022-08-12T01:10:39.890Z,44.63
2022-08-12T01:11:39.879Z,50.92
2022-08-12T01:12:40.041Z,44.15
2022-08-12T01:13:39.854Z,43.83
2022-08-12T01:14:39.849Z,43.51
2022-08-12T01:15:39.892Z,43.34
2022-08-12T01:16:39.828Z,57.20
2022-08-12T01:17:39.824Z,55.75
2022-08-12T01:18:39.826Z,49.31
2022-08-12T01:19:39.866Z,43.02
2022-08-12T01:20:39.790Z,42.54
2022-08-12T01:21:39.781Z,43.02
2022-08-12T01:22:39.908Z,42.54
2022-08-12T01:23:39.777Z,42.54
2022-08-12T01:24:39.759Z,42.54
2022-08-12T01:25:55.593Z,42.54
2022-08-12T01:26:40.737Z,61.07
2022-08-12T01:27:39.724Z,43.18
2022-08-12T01:28:39.731Z,43.02
2022-08-12T01:29:39.706Z,42.70
2022-08-12T01:30:39.696Z,45.12
2022-08-12T01:31:39.690Z,59.46
2022-08-12T01:32:39.867Z,43.34
2022-08-12T01:33:39.677Z,42.54
2022-08-12T01:34:39.767Z,43.51
2022-08-12T01:35:39.649Z,43.18
2022-08-12T01:36:39.638Z,43.99
2022-08-12T01:37:39.624Z,45.44
2022-08-12T01:38:39.636Z,42.54
2022-08-12T01:40:35.492Z,43.83
2022-08-12T01:40:44.956Z,43.18
2022-08-12T01:41:40.590Z,42.70
2022-08-12T01:42:39.819Z,42.22
2022-08-12T01:43:39.578Z,42.86
2022-08-12T01:44:39.591Z,42.70
2022-08-12T01:45:42.887Z,42.70
2022-08-12T01:46:39.544Z,43.02
2022-08-12T01:47:39.526Z,42.70
2022-08-12T01:48:39.535Z,43.02
2022-08-12T01:49:39.501Z,43.83
2022-08-12T01:50:39.509Z,42.86
2022-08-12T01:52:21.870Z,42.38
2022-08-12T01:52:40.760Z,42.38
2022-08-12T01:53:48.565Z,42.54
2022-08-12T01:54:40.462Z,43.18
2022-08-12T01:55:39.450Z,43.51
2022-08-12T01:56:39.446Z,43.51
2022-08-12T01:57:59.575Z,56.24
2022-08-12T01:58:40.489Z,43.18
2022-08-12T01:59:39.413Z,43.18
2022-08-12T02:00:43.305Z,42.70
2022-08-12T02:01:40.465Z,44.47
2022-08-12T02:02:39.530Z,44.63
2022-08-12T02:03:39.397Z,44.15
2022-08-12T02:04:39.367Z,61.39
2022-08-12T02:05:39.352Z,44.15
2022-08-12T02:06:39.345Z,43.02
2022-08-12T02:07:39.330Z,43.02
2022-08-12T02:08:39.336Z,42.54
2022-08-12T02:09:39.307Z,43.02
2022-08-12T02:10:50.133Z,58.49
2022-08-12T02:11:40.292Z,43.67
2022-08-12T02:12:39.286Z,43.34
2022-08-12T02:13:48.717Z,42.86
2022-08-12T02:14:40.263Z,44.96
2022-08-12T02:15:39.252Z,48.50
2022-08-12T02:16:39.252Z,43.02
2022-08-12T02:17:54.716Z,42.70
2022-08-12T02:18:40.241Z,42.70
2022-08-12T02:19:39.210Z,42.86
2022-08-12T02:20:51.928Z,44.31
2022-08-12T02:21:40.281Z,54.30
2022-08-12T02:22:39.468Z,42.86
2022-08-12T02:23:39.229Z,48.18
2022-08-12T02:24:39.163Z,58.33
2022-08-12T02:25:39.149Z,43.02
2022-08-12T02:26:39.147Z,59.78
2022-08-12T02:27:39.137Z,45.44
2022-08-12T02:28:39.147Z,56.88
2022-08-12T02:29:39.117Z,42.86
2022-08-12T02:30:41.989Z,56.40
2022-08-12T02:31:39.091Z,43.02
2022-08-12T02:32:39.289Z,43.34
2022-08-12T02:33:39.075Z,56.88
2022-08-12T02:34:39.080Z,43.02
2022-08-12T02:35:39.055Z,43.67
2022-08-12T02:36:39.047Z,43.99
2022-08-12T02:37:39.036Z,57.36
2022-08-12T02:38:39.044Z,44.31
2022-08-12T02:39:39.041Z,43.51
2022-08-12T02:40:39.016Z,61.07
2022-08-12T02:41:39.001Z,49.95
2022-08-12T02:42:39.184Z,43.99
2022-08-12T02:43:38.994Z,48.02
2022-08-12T02:44:38.974Z,50.60
2022-08-12T02:45:38.959Z,43.51
2022-08-12T02:46:38.947Z,43.51
2022-08-12T02:47:59.130Z,44.63
2022-08-12T02:48:39.947Z,43.99
2022-08-12T02:49:38.920Z,43.83
2022-08-12T02:50:38.914Z,58.81
2022-08-12T02:51:38.905Z,54.14
2022-08-12T02:52:39.020Z,44.47
2022-08-12T02:53:38.897Z,46.41
2022-08-12T02:54:38.964Z,61.23
2022-08-12T02:55:38.867Z,45.44
2022-08-12T02:56:38.859Z,58.81
2022-08-12T02:57:38.848Z,53.82
2022-08-12T02:58:41.347Z,43.18
2022-08-12T02:59:39.831Z,58.17
2022-08-12T03:00:38.842Z,48.66
2022-08-12T03:01:47.905Z,43.34
2022-08-12T03:02:39.917Z,53.33
2022-08-12T03:03:38.803Z,58.33
2022-08-12T03:04:43.474Z,55.91
2022-08-12T03:05:44.540Z,57.04
2022-08-12T03:06:38.758Z,43.67
2022-08-12T03:07:59.650Z,42.86
2022-08-12T03:08:39.752Z,57.20
2022-08-12T03:10:03.854Z,44.31
2022-08-12T03:10:39.717Z,43.83
2022-08-12T03:11:42.137Z,56.24
2022-08-12T03:12:48.895Z,44.96
2022-08-12T03:13:39.710Z,53.66
2022-08-12T03:14:38.773Z,56.40
2022-08-12T03:15:38.672Z,45.76
2022-08-12T03:16:38.661Z,57.20
2022-08-12T03:17:38.653Z,60.42
2022-08-12T03:18:38.652Z,48.98
2022-08-12T03:19:38.657Z,59.78
2022-08-12T03:20:39.640Z,61.07
2022-08-12T03:21:54.641Z,53.66
2022-08-12T03:22:39.735Z,53.82
2022-08-12T03:23:38.591Z,45.12
2022-08-12T03:24:38.599Z,58.33
2022-08-12T03:25:38.625Z,46.89
2022-08-12T03:26:38.563Z,59.62
2022-08-12T03:27:38.554Z,60.42
2022-08-12T03:28:38.546Z,58.49
2022-08-12T03:29:43.312Z,56.88
2022-08-12T03:30:39.526Z,56.56
2022-08-12T03:31:38.515Z,57.52
2022-08-12T03:32:38.507Z,63.00
2022-08-12T03:33:38.501Z,62.04
2022-08-12T03:34:38.499Z,52.69
2022-08-12T03:35:41.455Z,44.31
2022-08-12T03:36:38.571Z,54.79
2022-08-12T03:37:38.461Z,57.20
2022-08-12T03:38:38.450Z,43.67
2022-08-12T03:39:38.502Z,50.92
2022-08-12T03:40:38.422Z,58.81
2022-08-12T03:41:38.421Z,44.47
2022-08-12T03:42:38.442Z,61.23
2022-08-12T03:43:38.426Z,65.42
2022-08-12T03:44:38.391Z,60.59
2022-08-12T03:45:52.321Z,61.55
2022-08-12T03:46:39.364Z,62.68
2022-08-12T03:47:38.364Z,60.10
2022-08-12T03:48:38.369Z,58.33
2022-08-12T03:49:38.362Z,59.94
2022-08-12T03:50:38.336Z,52.69
2022-08-12T03:51:38.325Z,56.72
2022-08-12T03:52:38.335Z,46.41
2022-08-12T03:53:38.300Z,45.76
2022-08-12T03:54:42.430Z,46.73
2022-08-12T03:55:38.285Z,55.43
2022-08-12T03:56:38.274Z,62.04
2022-08-12T03:57:38.265Z,62.68
2022-08-12T03:58:38.253Z,59.14
2022-08-12T03:59:38.258Z,55.43
2022-08-12T04:00:38.280Z,60.75
2022-08-12T04:01:40.796Z,59.30
2022-08-12T04:02:38.285Z,59.14
2022-08-12T04:03:38.222Z,51.56
2022-08-12T04:04:38.197Z,61.23
2022-08-12T04:05:55.829Z,60.26
2022-08-12T04:06:39.211Z,58.65
2022-08-12T04:07:38.170Z,45.44
2022-08-12T04:08:39.170Z,60.91
2022-08-12T04:09:38.153Z,57.36
2022-08-12T04:10:38.138Z,60.26
2022-08-12T04:11:46.960Z,60.10
2022-08-12T04:12:39.117Z,58.49
2022-08-12T04:13:38.132Z,59.62
2022-08-12T04:14:38.100Z,60.10
2022-08-12T04:15:38.115Z,52.05
2022-08-12T04:16:38.084Z,59.46
2022-08-12T04:17:38.066Z,60.42
2022-08-12T04:18:39.075Z,45.76
2022-08-12T04:19:38.185Z,59.30
2022-08-12T04:20:38.043Z,56.72
2022-08-12T04:21:38.037Z,56.24
2022-08-12T04:22:39.206Z,59.62
2022-08-12T04:23:38.026Z,61.87
2022-08-12T04:24:40.781Z,63.49
2022-08-12T04:25:37.994Z,60.42
2022-08-12T04:26:37.980Z,59.30
2022-08-12T04:27:37.972Z,58.97
2022-08-12T04:28:37.976Z,61.71
2022-08-12T04:30:29.243Z,61.39
2022-08-12T04:30:38.942Z,58.33
2022-08-12T04:31:37.929Z,60.26
2022-08-12T04:32:43.752Z,61.39
2022-08-12T04:33:38.950Z,59.46
2022-08-12T04:34:37.924Z,60.59
2022-08-12T04:35:37.897Z,45.76
2022-08-12T04:36:37.885Z,61.39
2022-08-12T04:37:58.271Z,61.71
2022-08-12T04:38:38.882Z,61.23
2022-08-12T04:39:37.897Z,60.10
2022-08-12T04:40:37.854Z,58.81
2022-08-12T04:41:37.839Z,60.91
2022-08-12T04:42:38.884Z,61.55
2022-08-12T04:44:00.129Z,61.39
2022-08-12T04:44:38.820Z,60.26
2022-08-12T04:45:37.807Z,59.78
2022-08-12T04:46:37.793Z,60.91
2022-08-12T04:47:37.782Z,60.26
2022-08-12T04:48:37.769Z,62.84
2022-08-12T04:49:37.780Z,63.81
2022-08-12T04:50:37.751Z,59.62
2022-08-12T04:51:37.749Z,49.31
2022-08-12T04:52:37.868Z,61.39
2022-08-12T04:53:37.726Z,59.78
2022-08-12T04:54:37.737Z,58.17
2022-08-12T04:55:37.720Z,56.72
2022-08-12T04:56:37.702Z,62.52
2022-08-12T04:57:37.688Z,59.62
2022-08-12T04:58:37.691Z,61.07
2022-08-12T04:59:47.141Z,61.07
2022-08-12T05:00:38.662Z,60.91
2022-08-12T05:01:37.651Z,58.65
2022-08-12T05:02:37.666Z,58.65
2022-08-12T05:03:46.712Z,60.59
2022-08-12T05:04:38.778Z,61.55
2022-08-12T05:05:37.611Z,59.30
2022-08-12T05:06:37.596Z,60.42
2022-08-12T05:07:46.577Z,61.55
2022-08-12T05:08:38.585Z,58.97
2022-08-12T05:10:00.884Z,59.94
2022-08-12T05:10:38.558Z,52.53
2022-08-12T05:11:37.550Z,61.07
2022-08-12T05:12:38.601Z,61.39
2022-08-12T05:13:37.537Z,57.36
2022-08-12T05:14:37.861Z,59.78
2022-08-12T05:15:37.513Z,60.75
2022-08-12T05:16:38.501Z,58.01
2022-08-12T05:17:37.496Z,42.70
2022-08-12T05:18:39.076Z,61.07
2022-08-12T05:19:37.493Z,65.74
2022-08-12T05:20:37.464Z,63.33
2022-08-12T05:21:37.459Z,59.14
2022-08-12T05:22:37.447Z,56.88
2022-08-12T05:23:37.434Z,61.87
2022-08-12T05:24:37.452Z,62.04
2022-08-12T05:25:37.421Z,61.71
2022-08-12T05:26:37.404Z,61.07
2022-08-12T05:27:37.400Z,61.23
2022-08-12T05:28:37.384Z,61.07
2022-08-12T05:30:08.051Z,61.71
2022-08-12T05:30:38.360Z,56.07
2022-08-12T05:31:40.442Z,59.30
2022-08-12T05:32:38.369Z,59.46
2022-08-12T05:33:37.350Z,62.20
2022-08-12T05:34:37.344Z,68.80
2022-08-12T05:35:37.320Z,61.71
2022-08-12T05:36:37.372Z,58.33
2022-08-12T05:37:37.307Z,56.56
2022-08-12T05:38:37.290Z,59.94
2022-08-12T05:39:37.328Z,58.81
2022-08-12T05:40:37.271Z,61.55
2022-08-12T05:41:37.263Z,59.14
2022-08-12T05:42:37.262Z,62.52
2022-08-12T05:43:37.282Z,58.49
2022-08-12T05:44:37.243Z,62.36
2022-08-12T05:45:40.482Z,51.24
2022-08-12T05:46:37.222Z,60.10
2022-08-12T05:47:53.409Z,63.16
2022-08-12T05:48:38.189Z,61.23
2022-08-12T05:49:37.209Z,61.23
2022-08-12T05:50:37.175Z,60.26
2022-08-12T05:51:40.178Z,62.04
2022-08-12T05:52:37.154Z,60.42
2022-08-12T05:53:37.145Z,58.97
2022-08-12T05:54:56.689Z,60.59
2022-08-12T05:55:38.130Z,68.80
2022-08-12T05:56:37.169Z,62.04
2022-08-12T05:57:37.114Z,60.59
2022-08-12T05:58:37.096Z,57.36
2022-08-12T05:59:37.115Z,61.39
2022-08-12T06:00:37.144Z,59.30
2022-08-12T06:02:08.819Z,66.23
2022-08-12T06:02:38.065Z,54.14
2022-08-12T06:03:37.083Z,59.62
2022-08-12T06:04:37.041Z,60.10
2022-08-12T06:05:54.384Z,59.94
2022-08-12T06:06:39.719Z,60.59
2022-08-12T06:07:37.675Z,59.62
2022-08-12T06:08:38.000Z,61.71
2022-08-12T06:09:37.005Z,49.95
2022-08-12T06:10:36.982Z,62.04
2022-08-12T06:11:36.973Z,59.94
2022-08-12T06:12:36.962Z,60.26
2022-08-12T06:13:53.965Z,57.69
2022-08-12T06:14:38.035Z,61.71
2022-08-12T06:15:36.928Z,58.17
2022-08-12T06:16:36.921Z,61.23
2022-08-12T06:17:36.910Z,61.23
2022-08-12T06:18:36.898Z,60.75
2022-08-12T06:20:27.001Z,59.46
2022-08-12T06:20:37.882Z,60.91
2022-08-12T06:21:36.874Z,65.74
2022-08-12T06:22:36.868Z,63.65
2022-08-12T06:23:40.549Z,63.49
2022-08-12T06:24:36.856Z,59.62
2022-08-12T06:25:36.832Z,71.22
2022-08-12T06:26:36.826Z,67.19
2022-08-12T06:27:36.812Z,60.75
2022-08-12T06:28:37.802Z,60.59
2022-08-12T06:30:08.177Z,63.33
2022-08-12T06:30:39.450Z,59.14
2022-08-12T06:31:36.776Z,61.71
2022-08-12T06:32:42.902Z,62.04
2022-08-12T06:33:55.038Z,57.04
2022-08-12T06:35:26.610Z,60.10
2022-08-12T06:35:47.685Z,58.81
2022-08-12T06:36:37.721Z,63.00
2022-08-12T06:37:36.712Z,60.26
2022-08-12T06:38:36.705Z,59.94
2022-08-12T06:39:36.726Z,59.78
2022-08-12T06:40:36.677Z,58.33
2022-08-12T06:41:36.675Z,58.97
2022-08-12T06:42:36.662Z,58.49
2022-08-12T06:44:05.613Z,57.85
2022-08-12T06:44:37.657Z,53.33
2022-08-12T06:45:46.037Z,55.91
2022-08-12T06:46:37.624Z,57.85
2022-08-12T06:47:36.611Z,53.33
2022-08-12T06:48:36.595Z,58.49
2022-08-12T06:49:36.588Z,58.97
2022-08-12T06:50:39.897Z,53.50
2022-08-12T06:51:36.586Z,58.65
2022-08-12T06:52:36.560Z,53.98
2022-08-12T06:53:36.551Z,58.17
2022-08-12T06:54:36.542Z,56.72
2022-08-12T06:55:36.556Z,53.66
2022-08-12T06:58:05.548Z,54.79
2022-08-12T06:58:06.099Z,51.88
2022-08-12T06:58:37.517Z,56.56
2022-08-12T06:59:36.490Z,62.04
2022-08-12T07:00:36.538Z,61.39
2022-08-12T07:01:36.474Z,60.91
2022-08-12T07:02:37.272Z,59.46
2022-08-12T07:03:36.456Z,54.46
2022-08-12T07:04:37.775Z,58.65
2022-08-12T07:05:36.451Z,58.33
2022-08-12T07:06:36.442Z,56.40
2022-08-12T07:07:36.424Z,58.17
2022-08-12T07:08:36.414Z,52.85
2022-08-12T07:10:05.198Z,58.97
2022-08-12T07:10:37.406Z,59.78
2022-08-12T07:11:36.418Z,55.75
2022-08-12T07:12:36.376Z,55.91
2022-08-12T07:13:36.362Z,60.59
2022-08-12T07:14:40.658Z,58.49
2022-08-12T07:15:36.362Z,59.14
2022-08-12T07:16:36.339Z,61.71
2022-08-12T07:17:36.916Z,58.33
2022-08-12T07:18:36.319Z,55.91
2022-08-12T07:19:45.029Z,55.59
2022-08-12T07:20:52.170Z,59.14
2022-08-12T07:22:00.155Z,56.24
2022-08-12T07:22:37.282Z,57.52
2022-08-12T07:23:36.265Z,56.72
2022-08-12T07:24:36.256Z,57.69
2022-08-12T07:25:37.513Z,57.36
2022-08-12T07:26:37.263Z,58.97
2022-08-12T07:27:36.268Z,57.69
2022-08-12T07:28:36.260Z,54.95
2022-08-12T07:29:57.939Z,45.28
2022-08-12T07:30:37.211Z,58.65
2022-08-12T07:31:36.210Z,49.95
2022-08-12T07:32:36.199Z,57.36
2022-08-12T07:33:36.175Z,56.56
2022-08-12T07:34:36.164Z,55.11
2022-08-12T07:35:36.217Z,58.01
2022-08-12T07:36:36.142Z,57.36
2022-08-12T07:37:36.153Z,61.23
2022-08-12T07:38:36.135Z,58.49
2022-08-12T07:39:36.155Z,56.72
2022-08-12T07:40:36.126Z,56.72
2022-08-12T07:41:36.092Z,56.40
2022-08-12T07:42:36.079Z,54.30
2022-08-12T07:43:36.125Z,58.49
2022-08-12T07:44:36.066Z,59.46
2022-08-12T07:45:36.066Z,54.79
2022-08-12T07:46:36.085Z,59.14
2022-08-12T07:47:36.034Z,58.65
2022-08-12T07:48:36.028Z,57.04
2022-08-12T07:49:36.016Z,56.88
2022-08-12T07:50:37.029Z,57.04
2022-08-12T07:51:35.993Z,57.20
2022-08-12T07:52:36.024Z,56.40
2022-08-12T07:53:47.723Z,58.49
2022-08-12T07:54:36.964Z,57.04
2022-08-12T07:55:35.968Z,56.40
2022-08-12T07:56:35.948Z,56.88
2022-08-12T07:57:35.935Z,56.88
2022-08-12T07:58:35.941Z,59.46
2022-08-12T07:59:35.923Z,48.02
2022-08-12T08:00:35.919Z,56.40
2022-08-12T08:01:35.955Z,55.75
2022-08-12T08:02:35.894Z,52.53
2022-08-12T08:03:35.871Z,54.30
2022-08-12T08:04:36.868Z,58.49
2022-08-12T08:05:35.856Z,55.11
2022-08-12T08:06:36.358Z,58.17
2022-08-12T08:07:35.838Z,56.72
2022-08-12T08:08:35.826Z,57.04
2022-08-12T08:09:35.814Z,56.56
2022-08-12T08:10:35.842Z,58.97
2022-08-12T08:11:35.810Z,56.88
2022-08-12T08:12:35.853Z,55.59
2022-08-12T08:13:35.774Z,53.33
2022-08-12T08:14:35.782Z,55.75
2022-08-12T08:16:36.767Z,54.30
2022-08-12T08:17:35.743Z,57.69
2022-08-12T08:18:35.731Z,53.98
2022-08-12T08:20:01.992Z,53.82
2022-08-12T08:20:36.748Z,57.04
2022-08-12T08:21:35.723Z,53.50
2022-08-12T08:22:41.984Z,49.47
2022-08-12T08:23:37.202Z,52.85
2022-08-12T08:24:35.677Z,54.62
2022-08-12T08:25:37.629Z,56.72
2022-08-12T08:26:35.675Z,48.34
2022-08-12T08:27:35.650Z,54.95
2022-08-12T08:28:35.643Z,57.36
2022-08-12T08:29:35.638Z,54.79
2022-08-12T08:30:35.622Z,56.88
2022-08-12T08:31:35.625Z,54.95
2022-08-12T08:32:35.667Z,56.24
2022-08-12T08:34:05.181Z,58.01
2022-08-12T08:34:53.071Z,56.40
2022-08-12T08:35:47.650Z,52.85
2022-08-12T08:36:36.585Z,56.07
2022-08-12T08:37:37.063Z,55.59
2022-08-12T08:38:35.611Z,56.72
2022-08-12T08:39:35.601Z,57.52
2022-08-12T08:40:35.564Z,51.08
2022-08-12T08:42:15.456Z,52.37
2022-08-12T08:42:36.519Z,54.46
2022-08-12T08:43:44.377Z,53.50
2022-08-12T08:44:36.500Z,56.24
2022-08-12T08:45:35.491Z,56.88
2022-08-12T08:46:35.494Z,57.36
2022-08-12T08:47:35.465Z,58.33
2022-08-12T08:48:35.460Z,53.82
2022-08-12T08:49:35.452Z,54.30
2022-08-12T08:50:35.440Z,57.20
2022-08-12T08:51:35.443Z,55.59
2022-08-12T08:52:39.442Z,56.56
2022-08-12T08:53:36.416Z,64.29
2022-08-12T08:54:35.408Z,53.33
2022-08-12T08:56:03.322Z,57.69
2022-08-12T08:56:36.404Z,42.38
2022-08-12T08:57:43.130Z,54.46
2022-08-12T08:58:36.374Z,52.85
2022-08-12T08:59:35.366Z,55.75
2022-08-12T09:00:35.360Z,54.30
2022-08-12T09:01:37.517Z,51.56
2022-08-12T09:02:35.367Z,53.98
2022-08-12T09:05:08.572Z,55.75
2022-08-12T09:05:13.457Z,50.11
2022-08-12T09:06:01.563Z,53.98
2022-08-12T09:06:37.364Z,51.08
2022-08-12T09:07:43.895Z,50.43
2022-08-12T09:08:36.291Z,54.62
2022-08-12T09:10:02.945Z,53.01
2022-08-12T09:10:36.278Z,55.27
2022-08-12T09:12:06.904Z,53.98
2022-08-12T09:12:36.283Z,51.88
2022-08-12T09:14:10.927Z,55.75
2022-08-12T09:14:36.242Z,51.72
2022-08-12T09:15:36.248Z,62.04
2022-08-12T09:16:40.902Z,55.43
2022-08-12T09:18:36.211Z,56.88
2022-08-12T09:19:35.203Z,54.46
2022-08-12T09:20:35.196Z,49.79
2022-08-12T09:21:54.744Z,53.98
2022-08-12T09:22:36.196Z,53.17
2022-08-12T09:23:59.322Z,54.14
2022-08-12T09:24:36.215Z,51.72
2022-08-12T09:25:35.152Z,52.05
2022-08-12T09:26:38.152Z,55.59
2022-08-12T09:28:04.316Z,55.59
2022-08-12T09:28:36.897Z,52.05
2022-08-12T09:30:11.668Z,53.01
2022-08-12T09:30:41.085Z,55.91
2022-08-12T09:32:03.132Z,51.72
2022-08-12T09:33:05.200Z,54.62
2022-08-12T09:34:26.120Z,54.95
2022-08-12T09:34:42.036Z,51.40
2022-08-12T09:35:43.186Z,53.82
2022-08-12T09:36:58.353Z,57.04
2022-08-12T09:37:58.513Z,54.95
2022-08-12T09:38:36.959Z,52.85
2022-08-12T09:40:02.081Z,52.21
2022-08-12T09:41:01.408Z,61.55
2022-08-12T09:42:33.658Z,56.56
2022-08-12T09:42:44.047Z,57.20
2022-08-12T09:43:36.048Z,54.95
2022-08-12T09:44:39.026Z,59.78
2022-08-12T09:46:06.402Z,58.33
2022-08-12T09:46:36.046Z,54.62
2022-08-12T09:47:34.991Z,53.17
2022-08-12T09:48:36.070Z,53.33
2022-08-12T09:49:38.538Z,58.81
2022-08-12T09:50:34.947Z,44.79
2022-08-12T09:51:37.308Z,55.27
2022-08-12T09:52:34.990Z,49.15
2022-08-12T09:53:38.587Z,54.95
2022-08-12T09:54:36.209Z,51.24
2022-08-12T09:56:06.990Z,56.56
2022-08-12T09:57:02.861Z,56.07
2022-08-12T09:58:44.902Z,51.88
2022-08-12T09:58:57.242Z,54.14
2022-08-12T10:00:12.618Z,52.69
2022-08-12T10:00:51.693Z,49.79
2022-08-12T10:02:52.606Z,55.91
2022-08-12T10:02:53.070Z,43.67
2022-08-12T10:03:35.941Z,52.69
2022-08-12T10:04:35.966Z,53.50
2022-08-12T10:06:19.665Z,55.27
2022-08-12T10:06:36.897Z,54.30
2022-08-12T10:07:39.431Z,57.20
2022-08-12T10:08:34.830Z,51.24
2022-08-12T10:09:57.339Z,54.95
2022-08-12T10:10:40.397Z,53.33
2022-08-12T10:12:10.616Z,48.34
2022-08-12T10:12:35.786Z,49.15
2022-08-12T10:13:40.194Z,57.04
2022-08-12T10:14:36.750Z,56.72
2022-08-12T10:16:02.844Z,55.11
2022-08-12T10:16:39.464Z,49.15
2022-08-12T10:17:34.760Z,54.14
2022-08-12T10:18:36.093Z,55.11
2022-08-12T10:19:36.847Z,62.52
2022-08-12T10:20:34.731Z,52.53
2022-08-12T10:21:36.468Z,57.20
2022-08-12T10:22:39.327Z,54.46
2022-08-12T10:23:40.156Z,50.92
2022-08-12T10:24:35.704Z,50.76
2022-08-12T10:26:34.269Z,53.66
2022-08-12T10:26:38.974Z,54.62
2022-08-12T10:27:39.477Z,53.82
2022-08-12T10:28:35.693Z,54.79
2022-08-12T10:30:02.784Z,50.27
2022-08-12T10:30:40.011Z,56.24
2022-08-12T10:31:47.423Z,54.14
2022-08-12T10:32:45.205Z,53.01
2022-08-12T10:33:54.798Z,51.88
2022-08-12T10:34:35.636Z,55.59
2022-08-12T10:35:38.249Z,51.88
2022-08-12T10:36:39.849Z,50.92
2022-08-12T10:38:36.643Z,55.59
2022-08-12T10:38:41.568Z,53.82
2022-08-12T10:40:01.781Z,54.62
2022-08-12T10:40:37.903Z,49.63
2022-08-12T10:41:57.876Z,52.37
2022-08-12T10:42:35.577Z,55.43
2022-08-12T10:43:54.024Z,54.14
2022-08-12T10:44:35.568Z,55.75
2022-08-12T10:45:38.142Z,56.56
2022-08-12T10:46:34.552Z,54.62
2022-08-12T10:48:19.638Z,55.11
2022-08-12T10:48:35.548Z,55.11
2022-08-12T10:50:02.982Z,53.50
2022-08-12T10:50:56.710Z,53.66
2022-08-12T10:52:04.611Z,51.88
2022-08-12T10:52:47.166Z,52.69
2022-08-12T10:53:45.475Z,57.69
2022-08-12T10:54:36.261Z,53.82
2022-08-12T10:55:35.502Z,53.98
2022-08-12T10:56:35.421Z,54.14
2022-08-12T10:58:13.728Z,51.88
2022-08-12T10:58:35.480Z,51.72
2022-08-12T11:00:01.327Z,55.75
2022-08-12T11:00:55.358Z,53.98
2022-08-12T11:04:19.351Z,48.50
2022-08-12T11:04:24.245Z,53.82
2022-08-12T11:04:26.120Z,54.46
2022-08-12T11:04:43.747Z,51.88
2022-08-12T11:07:03.708Z,53.66
2022-08-12T11:07:05.076Z,55.11
2022-08-12T11:08:37.766Z,56.24
2022-08-12T11:08:42.414Z,55.11
2022-08-12T11:09:54.232Z,51.40
2022-08-12T11:10:35.465Z,52.53
2022-08-12T11:12:37.053Z,52.37
2022-08-12T11:12:59.307Z,53.98
2022-08-12T11:13:45.827Z,54.14
2022-08-12T11:14:49.591Z,49.47
2022-08-12T11:16:19.884Z,58.97
2022-08-12T11:16:35.495Z,50.92
2022-08-12T11:17:43.827Z,48.82
2022-08-12T11:18:35.340Z,53.82
2022-08-12T11:19:34.443Z,52.37
2022-08-12T11:20:34.327Z,55.59
2022-08-12T11:21:57.130Z,53.01
2022-08-12T11:22:35.486Z,54.30
2022-08-12T11:23:36.928Z,54.14
2022-08-12T11:24:34.344Z,52.85
2022-08-12T11:25:53.715Z,54.62
2022-08-12T11:26:35.293Z,55.43
2022-08-12T11:27:34.288Z,53.33
2022-08-12T11:28:37.653Z,51.72
2022-08-12T11:30:02.213Z,51.40
2022-08-12T11:30:35.292Z,47.05
2022-08-12T11:31:52.661Z,52.85
2022-08-12T11:32:38.832Z,53.17
2022-08-12T11:34:06.822Z,52.69
2022-08-12T11:34:53.266Z,54.14
2022-08-12T11:35:35.241Z,54.46
2022-08-12T11:36:36.277Z,55.43
2022-08-12T11:37:57.717Z,52.21
2022-08-12T11:38:35.193Z,53.17
2022-08-12T11:40:03.581Z,54.95
2022-08-12T11:40:35.174Z,56.56
2022-08-12T11:41:34.166Z,57.04
2022-08-12T11:42:34.165Z,56.88
2022-08-12T11:43:50.748Z,55.27
2022-08-12T11:44:42.878Z,52.69
2022-08-12T11:45:38.943Z,55.27
2022-08-12T11:46:34.136Z,53.82
2022-08-12T11:47:34.135Z,51.88
2022-08-12T11:48:52.234Z,46.73
2022-08-12T11:49:35.143Z,54.79
2022-08-12T11:50:34.121Z,49.31
2022-08-12T11:51:36.531Z,52.53
2022-08-12T11:52:53.906Z,49.95
2022-08-12T11:53:57.263Z,53.66
2022-08-12T11:54:35.118Z,54.14
2022-08-12T11:55:34.096Z,56.40
2022-08-12T11:56:38.126Z,53.17
2022-08-12T11:58:33.815Z,54.62
2022-08-12T12:01:05.634Z,46.08
2022-08-12T12:02:01.024Z,52.53
2022-08-12T12:02:35.119Z,51.56
2022-08-12T12:03:40.444Z,52.69
2022-08-12T12:04:35.047Z,49.15
2022-08-12T12:05:41.726Z,56.07
2022-08-12T12:06:35.034Z,53.66
2022-08-12T12:08:37.500Z,51.40
2022-08-12T12:08:38.309Z,56.72
2022-08-12T12:09:52.763Z,49.15
2022-08-12T12:10:35.024Z,51.72
2022-08-12T12:11:39.119Z,53.33
2022-08-12T12:12:34.998Z,56.72
2022-08-12T12:14:06.924Z,52.05
2022-08-12T12:14:38.141Z,54.62
2022-08-12T12:15:40.968Z,53.33
2022-08-12T12:16:38.304Z,53.98
2022-08-12T12:17:38.564Z,51.56
2022-08-12T12:18:33.971Z,49.31
2022-08-12T12:19:45.456Z,51.08
2022-08-12T12:20:35.013Z,52.85
2022-08-12T12:21:48.681Z,59.78
2022-08-12T12:22:34.958Z,55.59
2022-08-12T12:23:36.179Z,54.30
2022-08-12T12:24:33.945Z,46.57
2022-08-12T12:26:07.512Z,53.33
2022-08-12T12:26:36.983Z,60.26
2022-08-12T12:28:01.973Z,52.85
2022-08-12T12:28:37.327Z,54.14
2022-08-12T12:30:18.377Z,50.76
2022-08-12T12:30:34.935Z,52.85
2022-08-12T12:32:08.954Z,55.75
2022-08-12T12:32:34.903Z,52.21
2022-08-12T12:33:57.295Z,54.62
2022-08-12T12:34:34.914Z,58.65
2022-08-12T12:36:18.460Z,53.50
2022-08-12T12:36:34.887Z,51.88
2022-08-12T12:38:04.710Z,51.08
2022-08-12T12:38:34.871Z,56.07
2022-08-12T12:39:55.688Z,53.33
2022-08-12T12:40:34.867Z,51.88
2022-08-12T12:42:40.685Z,55.59
2022-08-12T12:42:45.409Z,50.43
2022-08-12T12:43:43.646Z,49.15
2022-08-12T12:44:42.130Z,54.95
2022-08-12T12:45:35.537Z,50.92
2022-08-12T12:46:33.840Z,54.79
2022-08-12T12:47:33.839Z,55.11
2022-08-12T12:48:33.824Z,52.85
2022-08-12T12:49:33.890Z,52.53
2022-08-12T12:50:35.933Z,55.91
2022-08-12T12:51:58.135Z,53.50
2022-08-12T12:52:34.815Z,52.05
2022-08-12T12:54:06.919Z,53.50
2022-08-12T12:54:34.807Z,53.17
2022-08-12T12:55:35.734Z,53.17
2022-08-12T12:56:34.064Z,51.88